Terminal Aerodrome Forecast
Issued by NWS Los Angeles, CA

Home | Current Version | Previous Version | Text Only | Print | Product List | Glossary On
Versions: 1 2 3 4 5 6 7 8 9 10 11 12 13 14 15 16 17 18 19 20 21 22 23 24 25 26 27 28
000
FTUS46 KLOX 201750
TAFSMX
TAF
KSMX 201750Z 2018/2118 30006KT P6SM SKC
     FM202100 31012G18KT P6SM SKC
     FM210200 30008KT P6SM SCT010
     FM210400 30006KT 6SM BR BKN007
     FM210800 VRB03KT 3SM BR OVC003
     FM211000 00000KT 1/2SM FG OVC002
     FM211400 VRB03KT 3SM BR OVC003
     FM211600 30006KT 6SM BR SCT007=

USA.gov is the U.S. government's official web portal to all federal, state and local government web resources and services.